Time;durP1;ratioP1;P1;durP2;ratioP2;P2;SDS_P1;SDS_P2;PMS_P1;PMS_P2;Temp;Humidity;BMP_temperature;BMP_pressure;BME280_temperature;BME280_humidity;BME280_pressure;Samples;Min_cycle;Max_cycle;Signal;HPM_P1;HPM_P2
2024/04/08 00:00:11;;;;;;;;;;;17.60;55.30;;;;;;5301933;26;81196;-43
2024/04/08 00:02:36;;;;;;;;;;;17.60;55.40;;;;;;5307713;26;80999;-42
2024/04/08 00:05:02;;;;;;;;;;;17.70;55.40;;;;;;5308769;26;81750;-42
2024/04/08 00:07:27;;;;;;;;;;;17.60;56.10;;;;;;5302263;26;81831;-43
2024/04/08 00:09:53;;;;;;;;;;;17.60;55.40;;;;;;5305073;26;80952;-42
2024/04/08 00:12:18;;;;;;;;;;;17.50;55.50;;;;;;5301057;26;81643;-42
2024/04/08 00:14:44;;;;;;;;;;;17.50;55.50;;;;;;5306576;26;80122;-42
2024/04/08 00:17:10;;;;;;;;;;;17.50;55.50;;;;;;5313294;26;80394;-42
2024/04/08 00:19:35;;;;;;;;;;;17.50;55.50;;;;;;5311498;26;80704;-43
2024/04/08 00:22:01;;;;;;;;;;;17.50;55.50;;;;;;5307400;26;83296;-42
2024/04/08 00:24:27;;;;;;;;;;;17.50;55.50;;;;;;5313483;26;80554;-42
2024/04/08 00:26:52;;;;;;;;;;;17.50;55.60;;;;;;5317642;26;81298;-42
2024/04/08 00:29:18;;;;;;;;;;;17.40;55.50;;;;;;5307935;26;80373;-42
2024/04/08 00:31:43;;;;;;;;;;;17.40;55.60;;;;;;5312105;26;80719;-42
2024/04/08 00:34:09;;;;;;;;;;;17.40;55.70;;;;;;5292060;26;82166;-42
2024/04/08 00:36:34;;;;;;;;;;;17.40;55.60;;;;;;5309780;26;80987;-42
2024/04/08 00:39:00;;;;;;;;;;;17.40;55.70;;;;;;5304986;26;81932;-42
2024/04/08 00:41:25;;;;;;;;;;;17.30;55.70;;;;;;5307162;26;82251;-42
2024/04/08 00:43:51;;;;;;;;;;;17.30;55.70;;;;;;5305523;26;81400;-42
2024/04/08 00:46:18;;;;;;;;;;;17.30;55.70;;;;;;5310433;26;81157;-41
2024/04/08 00:48:46;;;;;;;;;;;17.30;55.70;;;;;;5307902;26;80561;-42
2024/04/08 00:51:12;;;;;;;;;;;17.30;55.70;;;;;;5306524;26;81570;-42
2024/04/08 00:53:38;;;;;;;;;;;17.30;55.70;;;;;;5299934;26;80618;-42
2024/04/08 00:56:04;;;;;;;;;;;17.30;55.80;;;;;;5301724;26;80260;-42
2024/04/08 00:58:31;;;;;;;;;;;17.30;55.80;;;;;;5299879;26;81686;-42
2024/04/08 01:00:57;;;;;;;;;;;17.20;55.70;;;;;;5303402;26;82248;-42
2024/04/08 01:03:23;;;;;;;;;;;17.20;55.80;;;;;;5304572;26;79591;-43
2024/04/08 01:05:50;;;;;;;;;;;17.20;55.80;;;;;;5302363;26;80741;-42
2024/04/08 01:08:16;;;;;;;;;;;17.20;55.70;;;;;;5312900;26;82232;-42
2024/04/08 01:10:42;;;;;;;;;;;17.20;55.80;;;;;;5302504;26;82420;-43
2024/04/08 01:13:08;;;;;;;;;;;17.20;55.80;;;;;;5298991;26;80997;-42
2024/04/08 01:15:33;;;;;;;;;;;17.20;55.90;;;;;;5302613;26;80386;-42
2024/04/08 01:17:59;;;;;;;;;;;17.20;55.90;;;;;;5303633;26;82440;-43
2024/04/08 01:20:24;;;;;;;;;;;17.20;55.80;;;;;;5299916;26;80799;-42
2024/04/08 01:22:53;;;;;;;;;;;17.10;55.80;;;;;;5302712;26;81225;-43
2024/04/08 01:25:18;;;;;;;;;;;17.10;55.90;;;;;;5312464;26;83106;-42
2024/04/08 01:27:44;;;;;;;;;;;17.10;56.40;;;;;;5305375;26;80271;-42
2024/04/08 01:30:10;;;;;;;;;;;17.10;55.90;;;;;;5309828;26;81177;-43
2024/04/08 01:32:35;;;;;;;;;;;17.10;55.90;;;;;;5313061;26;82201;-43
2024/04/08 01:35:01;;;;;;;;;;;17.10;55.90;;;;;;5306100;26;81989;-42
2024/04/08 01:37:26;;;;;;;;;;;17.10;55.90;;;;;;5299384;26;82573;-42
2024/04/08 01:39:52;;;;;;;;;;;17.00;55.80;;;;;;5303554;26;81054;-42
2024/04/08 01:42:17;;;;;;;;;;;17.00;55.80;;;;;;5314326;26;80433;-42
2024/04/08 01:44:43;;;;;;;;;;;17.00;55.80;;;;;;5303655;26;81213;-42
2024/04/08 01:47:09;;;;;;;;;;;17.00;55.90;;;;;;5302477;26;82439;-42
2024/04/08 01:49:34;;;;;;;;;;;16.90;55.90;;;;;;5311654;26;80308;-42
2024/04/08 01:52:00;;;;;;;;;;;16.90;55.90;;;;;;5307676;26;80891;-42
2024/04/08 01:54:25;;;;;;;;;;;17.00;56.00;;;;;;5304337;26;80286;-42
2024/04/08 01:56:51;;;;;;;;;;;16.90;55.90;;;;;;5303986;26;81113;-42
2024/04/08 01:59:16;;;;;;;;;;;16.90;55.90;;;;;;5306817;26;82744;-41
2024/04/08 02:01:42;;;;;;;;;;;16.90;55.90;;;;;;5314110;26;81300;-42
2024/04/08 02:04:07;;;;;;;;;;;16.80;55.90;;;;;;5304921;26;81769;-42
2024/04/08 02:06:33;;;;;;;;;;;16.80;56.00;;;;;;5297495;26;82171;-42
2024/04/08 02:08:58;;;;;;;;;;;16.80;55.90;;;;;;5300963;26;80395;-42
2024/04/08 02:11:24;;;;;;;;;;;16.80;56.00;;;;;;5310497;26;82022;-42
2024/04/08 02:13:49;;;;;;;;;;;16.80;56.10;;;;;;5307487;26;80415;-42
2024/04/08 02:16:15;;;;;;;;;;;16.80;56.00;;;;;;5307141;26;80565;-42
2024/04/08 02:18:41;;;;;;;;;;;16.80;56.00;;;;;;5305352;26;81842;-42
2024/04/08 02:21:11;;;;;;;;;;;16.80;56.50;;;;;;5306149;26;81180;-42
2024/04/08 02:23:36;;;;;;;;;;;16.70;55.90;;;;;;5301302;26;81507;-42
2024/04/08 02:26:02;;;;;;;;;;;16.70;55.90;;;;;;5305484;26;80646;-42
2024/04/08 02:28:28;;;;;;;;;;;16.70;56.00;;;;;;5309465;26;80395;-42
2024/04/08 02:30:53;;;;;;;;;;;16.70;56.00;;;;;;5306521;26;81758;-42
2024/04/08 02:33:19;;;;;;;;;;;16.70;56.00;;;;;;5302867;26;80707;-42
2024/04/08 02:35:44;;;;;;;;;;;16.70;55.90;;;;;;5309183;26;81785;-44
2024/04/08 02:38:10;;;;;;;;;;;16.60;55.90;;;;;;5313252;26;81325;-42
2024/04/08 02:40:36;;;;;;;;;;;16.60;56.00;;;;;;5313127;26;80676;-42
2024/04/08 02:43:03;;;;;;;;;;;16.60;55.90;;;;;;5300322;26;81668;-42
2024/04/08 02:45:28;;;;;;;;;;;16.60;56.00;;;;;;5312999;26;81387;-42
2024/04/08 02:47:56;;;;;;;;;;;16.60;56.00;;;;;;5300312;26;81555;-42
2024/04/08 02:50:22;;;;;;;;;;;16.60;56.00;;;;;;5308412;26;82548;-42
2024/04/08 02:52:47;;;;;;;;;;;16.60;56.10;;;;;;5306038;26;82262;-41
2024/04/08 02:55:13;;;;;;;;;;;16.50;55.90;;;;;;5304569;26;80479;-42
2024/04/08 02:57:38;;;;;;;;;;;16.50;56.00;;;;;;5308530;26;81506;-42
2024/04/08 03:00:04;;;;;;;;;;;16.50;56.00;;;;;;5302275;26;80591;-42
2024/04/08 03:02:30;;;;;;;;;;;16.50;56.60;;;;;;5305271;26;81668;-42
2024/04/08 03:04:55;;;;;;;;;;;16.50;56.10;;;;;;5305865;26;79519;-41
2024/04/08 03:07:21;;;;;;;;;;;16.40;56.00;;;;;;5312885;26;81163;-42
2024/04/08 03:09:50;;;;;;;;;;;16.50;56.10;;;;;;5308525;26;83265;-41
2024/04/08 03:12:15;;;;;;;;;;;16.50;56.10;;;;;;5309157;26;82004;-42
2024/04/08 03:14:41;;;;;;;;;;;16.40;56.10;;;;;;5309977;26;80368;-42
2024/04/08 03:17:07;;;;;;;;;;;16.40;56.00;;;;;;5305634;26;80862;-42
2024/04/08 03:19:32;;;;;;;;;;;16.40;56.00;;;;;;5296980;26;80242;-41
2024/04/08 03:21:58;;;;;;;;;;;16.40;56.00;;;;;;5307394;26;81485;-42
2024/04/08 03:24:23;;;;;;;;;;;16.30;56.10;;;;;;5306377;26;82338;-42
2024/04/08 03:26:49;;;;;;;;;;;16.30;56.10;;;;;;5305338;26;80341;-41
2024/04/08 03:29:15;;;;;;;;;;;16.30;56.20;;;;;;5299285;26;81799;-42
2024/04/08 03:31:40;;;;;;;;;;;16.20;56.10;;;;;;5310638;26;81845;-43
2024/04/08 03:34:06;;;;;;;;;;;16.20;56.10;;;;;;5302678;26;80263;-42
2024/04/08 03:36:32;;;;;;;;;;;16.20;56.10;;;;;;5304577;26;82153;-42
2024/04/08 03:38:57;;;;;;;;;;;16.20;56.20;;;;;;5303933;26;80788;-42
2024/04/08 03:41:23;;;;;;;;;;;16.20;56.20;;;;;;5301471;26;81812;-41
2024/04/08 03:43:48;;;;;;;;;;;16.20;56.20;;;;;;5302888;26;82111;-42
2024/04/08 03:46:14;;;;;;;;;;;16.10;56.10;;;;;;5305009;26;80367;-42
2024/04/08 03:48:39;;;;;;;;;;;16.10;56.10;;;;;;5308445;26;81989;-42
2024/04/08 03:51:11;;;;;;;;;;;16.10;56.20;;;;;;5311046;26;81077;-42
2024/04/08 03:53:37;;;;;;;;;;;16.10;56.20;;;;;;5310727;26;79648;-43
2024/04/08 03:56:10;;;;;;;;;;;16.10;56.30;;;;;;5301608;26;81250;-42
2024/04/08 03:58:39;;;;;;;;;;;16.10;56.20;;;;;;5307926;26;82102;-42
2024/04/08 04:01:05;;;;;;;;;;;16.10;56.20;;;;;;5299908;26;82717;-42
2024/04/08 04:03:31;;;;;;;;;;;16.00;56.20;;;;;;5305177;26;81429;-42
2024/04/08 04:05:56;;;;;;;;;;;16.00;56.20;;;;;;5314026;26;80380;-41
2024/04/08 04:08:22;;;;;;;;;;;16.00;56.30;;;;;;5301931;26;82242;-42
2024/04/08 04:10:47;;;;;;;;;;;16.00;56.20;;;;;;5314905;26;82119;-43
2024/04/08 04:13:13;;;;;;;;;;;16.00;56.20;;;;;;5306268;26;80467;-42
2024/04/08 04:15:38;;;;;;;;;;;15.90;56.20;;;;;;5307259;26;81848;-42
2024/04/08 04:18:04;;;;;;;;;;;15.90;56.20;;;;;;5311748;26;81470;-42
2024/04/08 04:20:38;;;;;;;;;;;15.90;56.20;;;;;;5310767;26;80803;-42
2024/04/08 04:23:03;;;;;;;;;;;15.90;56.30;;;;;;5302015;26;81067;-42
2024/04/08 04:25:30;;;;;;;;;;;15.90;56.20;;;;;;5312295;26;81347;-42
2024/04/08 04:27:57;;;;;;;;;;;15.80;56.10;;;;;;5309241;26;81678;-42
2024/04/08 04:30:23;;;;;;;;;;;15.80;56.10;;;;;;5311867;26;81970;-41
2024/04/08 04:32:48;;;;;;;;;;;15.90;56.20;;;;;;5307999;26;80440;-41
2024/04/08 04:35:14;;;;;;;;;;;15.90;56.20;;;;;;5303842;26;80578;-42
2024/04/08 04:37:40;;;;;;;;;;;15.70;56.10;;;;;;5302352;26;82057;-42
2024/04/08 04:40:08;;;;;;;;;;;15.80;56.20;;;;;;5304974;26;80446;-42
2024/04/08 04:42:33;;;;;;;;;;;15.80;56.20;;;;;;5315532;26;81868;-42
2024/04/08 04:44:59;;;;;;;;;;;15.80;56.20;;;;;;5299124;26;80336;-42
2024/04/08 04:47:24;;;;;;;;;;;15.80;56.20;;;;;;5310244;26;80659;-42
2024/04/08 04:49:50;;;;;;;;;;;15.70;56.20;;;;;;5300858;26;82851;-42
2024/04/08 04:52:16;;;;;;;;;;;15.70;56.10;;;;;;5300080;26;81772;-42
2024/04/08 04:54:41;;;;;;;;;;;15.70;56.10;;;;;;5303272;26;81635;-42
2024/04/08 04:57:07;;;;;;;;;;;15.70;56.10;;;;;;5304552;26;81267;-43
2024/04/08 04:59:32;;;;;;;;;;;15.70;56.10;;;;;;5300923;26;80667;-42
2024/04/08 05:01:58;;;;;;;;;;;15.70;56.10;;;;;;5303635;26;80568;-43
2024/04/08 05:04:24;;;;;;;;;;;15.70;56.10;;;;;;5307996;26;81927;-42
2024/04/08 05:06:49;;;;;;;;;;;15.70;56.10;;;;;;5306593;26;81624;-41
2024/04/08 05:09:15;;;;;;;;;;;15.70;56.10;;;;;;5305933;26;81125;-42
2024/04/08 05:11:40;;;;;;;;;;;15.60;56.10;;;;;;5303877;26;80403;-42
2024/04/08 05:14:06;;;;;;;;;;;15.60;56.10;;;;;;5300322;26;81215;-42
2024/04/08 05:16:31;;;;;;;;;;;15.60;56.10;;;;;;5299224;26;81261;-42
2024/04/08 05:18:57;;;;;;;;;;;15.60;56.10;;;;;;5306531;26;80160;-41
2024/04/08 05:21:22;;;;;;;;;;;15.60;56.00;;;;;;5298769;26;80409;-42
2024/04/08 05:23:49;;;;;;;;;;;15.60;56.00;;;;;;5299992;26;81331;-41
2024/04/08 05:26:15;;;;;;;;;;;15.60;56.10;;;;;;5307871;26;80270;-42
2024/04/08 05:28:40;;;;;;;;;;;15.60;56.10;;;;;;5307498;26;80846;-41
2024/04/08 05:31:06;;;;;;;;;;;15.60;56.10;;;;;;5304723;26;79669;-41
2024/04/08 05:33:31;;;;;;;;;;;15.60;56.20;;;;;;5306990;26;81253;-41
2024/04/08 05:35:57;;;;;;;;;;;15.60;56.10;;;;;;5294510;26;81919;-42
2024/04/08 05:38:23;;;;;;;;;;;15.60;56.20;;;;;;5310077;26;81239;-42
2024/04/08 05:40:49;;;;;;;;;;;15.50;56.20;;;;;;5304574;26;82584;-42
2024/04/08 05:43:15;;;;;;;;;;;15.50;56.20;;;;;;5301108;26;82136;-42
2024/04/08 05:45:41;;;;;;;;;;;15.50;56.30;;;;;;5305899;26;80727;-42
2024/04/08 05:48:07;;;;;;;;;;;15.50;56.20;;;;;;5294941;26;81897;-41
2024/04/08 05:50:32;;;;;;;;;;;15.50;56.40;;;;;;5301123;26;80509;-41
2024/04/08 05:52:59;;;;;;;;;;;15.50;56.40;;;;;;5304795;26;81689;-42
2024/04/08 05:55:24;;;;;;;;;;;15.50;56.50;;;;;;5301501;26;81549;-42
2024/04/08 05:57:50;;;;;;;;;;;15.50;56.50;;;;;;5311864;26;80340;-42
2024/04/08 06:00:16;;;;;;;;;;;15.50;56.50;;;;;;5304522;26;81814;-42
2024/04/08 06:02:42;;;;;;;;;;;15.50;56.60;;;;;;5308987;26;83098;-41
2024/04/08 06:05:08;;;;;;;;;;;15.40;56.60;;;;;;5301239;26;81415;-42
2024/04/08 06:07:34;;;;;;;;;;;15.40;56.60;;;;;;5313790;26;81987;-41
2024/04/08 06:09:59;;;;;;;;;;;15.50;56.70;;;;;;5303375;26;80755;-42
2024/04/08 06:12:25;;;;;;;;;;;15.40;56.60;;;;;;5304356;26;80729;-42
2024/04/08 06:14:51;;;;;;;;;;;15.40;56.70;;;;;;5314156;26;82147;-42
2024/04/08 06:17:16;;;;;;;;;;;15.40;56.70;;;;;;5303396;26;80484;-42
2024/04/08 06:19:42;;;;;;;;;;;15.40;56.70;;;;;;5316865;26;81759;-43
2024/04/08 06:22:08;;;;;;;;;;;15.40;56.90;;;;;;5307235;26;81163;-42
2024/04/08 06:24:34;;;;;;;;;;;15.40;56.90;;;;;;5306488;26;80543;-41
2024/04/08 06:27:00;;;;;;;;;;;15.30;56.90;;;;;;5315512;26;81732;-41
2024/04/08 06:29:25;;;;;;;;;;;15.30;56.90;;;;;;5309877;26;81951;-42
2024/04/08 06:31:51;;;;;;;;;;;15.30;57.00;;;;;;5313660;26;80576;-42
2024/04/08 06:34:16;;;;;;;;;;;15.30;57.00;;;;;;5306339;26;80927;-42
2024/04/08 06:36:42;;;;;;;;;;;15.30;57.10;;;;;;5313005;26;81199;-42
2024/04/08 06:39:07;;;;;;;;;;;15.30;57.70;;;;;;5308558;26;80244;-42
2024/04/08 06:41:34;;;;;;;;;;;15.30;57.10;;;;;;5307057;26;80272;-41
2024/04/08 06:44:00;;;;;;;;;;;15.30;57.10;;;;;;5302682;26;79575;-41
2024/04/08 06:46:26;;;;;;;;;;;15.30;57.20;;;;;;5298012;26;80249;-42
2024/04/08 06:48:51;;;;;;;;;;;15.30;57.30;;;;;;5301906;26;81919;-42
2024/04/08 06:51:17;;;;;;;;;;;15.30;57.30;;;;;;5299483;26;81713;-41
2024/04/08 06:53:42;;;;;;;;;;;15.30;57.20;;;;;;5313776;26;81963;-42
2024/04/08 06:56:08;;;;;;;;;;;15.30;57.30;;;;;;5312464;26;80434;-41
2024/04/08 06:58:34;;;;;;;;;;;15.30;57.30;;;;;;5307196;26;80869;-42
2024/04/08 07:00:59;;;;;;;;;;;15.30;57.30;;;;;;5307853;26;81442;-42
2024/04/08 07:03:25;;;;;;;;;;;15.30;57.30;;;;;;5299650;26;80629;-41
2024/04/08 07:05:50;;;;;;;;;;;15.30;57.40;;;;;;5304161;26;80699;-41
2024/04/08 07:08:18;;;;;;;;;;;15.30;57.40;;;;;;5314163;26;80582;-42
2024/04/08 07:10:45;;;;;;;;;;;15.30;57.30;;;;;;5309401;26;80193;-41
2024/04/08 07:13:11;;;;;;;;;;;15.30;57.30;;;;;;5314089;26;81526;-41
2024/04/08 07:15:37;;;;;;;;;;;15.30;57.30;;;;;;5305221;26;82274;-42
2024/04/08 07:18:02;;;;;;;;;;;15.30;57.40;;;;;;5307801;26;81213;-42
2024/04/08 07:20:29;;;;;;;;;;;15.30;57.40;;;;;;5309691;26;82126;-41
2024/04/08 07:22:55;;;;;;;;;;;15.30;57.30;;;;;;5302471;26;80304;-42
2024/04/08 07:25:20;;;;;;;;;;;15.40;57.40;;;;;;5313532;26;81555;-41
2024/04/08 07:27:46;;;;;;;;;;;15.40;57.30;;;;;;5300083;26;81864;-41
2024/04/08 07:30:12;;;;;;;;;;;15.40;57.30;;;;;;5307780;26;80424;-42
2024/04/08 07:32:37;;;;;;;;;;;15.40;57.40;;;;;;5302566;26;80559;-41
2024/04/08 07:35:04;;;;;;;;;;;15.40;57.40;;;;;;5304786;26;80665;-43
2024/04/08 07:37:30;;;;;;;;;;;15.40;57.40;;;;;;5308033;26;81740;-41
2024/04/08 07:39:55;;;;;;;;;;;15.40;57.40;;;;;;5297823;26;82734;-42
2024/04/08 07:42:21;;;;;;;;;;;15.40;57.50;;;;;;5301362;26;80214;-41
2024/04/08 07:44:46;;;;;;;;;;;15.40;57.40;;;;;;5305809;26;81216;-42
2024/04/08 07:47:12;;;;;;;;;;;15.40;57.40;;;;;;5309837;26;81572;-41
2024/04/08 07:49:39;;;;;;;;;;;15.40;57.50;;;;;;5291316;26;80335;-41
2024/04/08 07:52:05;;;;;;;;;;;15.40;57.50;;;;;;5313008;26;80891;-42
2024/04/08 07:54:31;;;;;;;;;;;15.40;58.10;;;;;;5318299;26;82215;-41
2024/04/08 07:56:56;;;;;;;;;;;15.40;57.50;;;;;;5304692;26;80338;-42
2024/04/08 07:59:22;;;;;;;;;;;15.40;57.60;;;;;;5301939;26;80862;-43
2024/04/08 08:01:50;;;;;;;;;;;15.40;57.60;;;;;;5307193;26;80418;-41
2024/04/08 08:04:16;;;;;;;;;;;15.40;57.50;;;;;;5306816;26;81552;-41
2024/04/08 08:06:42;;;;;;;;;;;15.40;57.60;;;;;;5303869;26;80823;-42
2024/04/08 08:09:08;;;;;;;;;;;15.40;57.50;;;;;;5303987;26;81207;-41
2024/04/08 08:11:33;;;;;;;;;;;15.40;57.60;;;;;;5309534;26;81185;-42
2024/04/08 08:13:59;;;;;;;;;;;15.40;57.70;;;;;;5301559;26;82245;-42
2024/04/08 08:16:26;;;;;;;;;;;15.40;57.70;;;;;;5310469;26;80616;-42
2024/04/08 08:18:52;;;;;;;;;;;15.40;57.70;;;;;;5308929;26;81201;-41
2024/04/08 08:21:18;;;;;;;;;;;15.40;57.70;;;;;;5304037;26;79990;-42
2024/04/08 08:23:43;;;;;;;;;;;15.40;57.70;;;;;;5303730;26;81139;-41
2024/04/08 08:26:09;;;;;;;;;;;15.40;57.70;;;;;;5304132;26;81180;-41
2024/04/08 08:28:34;;;;;;;;;;;15.40;57.70;;;;;;5302166;26;81438;-42
2024/04/08 08:31:00;;;;;;;;;;;15.40;57.70;;;;;;5307747;26;82540;-42
2024/04/08 08:33:25;;;;;;;;;;;15.40;57.80;;;;;;5309736;26;82482;-42
2024/04/08 08:35:51;;;;;;;;;;;15.40;57.80;;;;;;5303532;26;80418;-42
2024/04/08 08:38:16;;;;;;;;;;;15.40;57.80;;;;;;5307091;26;82009;-42
2024/04/08 08:40:43;;;;;;;;;;;15.40;57.80;;;;;;5309438;26;80409;-41
2024/04/08 08:43:08;;;;;;;;;;;15.40;57.80;;;;;;5306284;26;81750;-42
2024/04/08 08:45:36;;;;;;;;;;;15.40;57.80;;;;;;5308070;26;81632;-44
2024/04/08 08:48:02;;;;;;;;;;;15.50;57.80;;;;;;5301705;26;80893;-42
2024/04/08 08:50:28;;;;;;;;;;;15.40;57.80;;;;;;5297282;26;80717;-42
2024/04/08 08:52:54;;;;;;;;;;;15.40;57.70;;;;;;5299493;26;82955;-41
2024/04/08 08:55:20;;;;;;;;;;;15.40;57.70;;;;;;5314953;26;80408;-41
2024/04/08 08:57:47;;;;;;;;;;;15.40;57.80;;;;;;5302011;26;81684;-41
2024/04/08 09:00:14;;;;;;;;;;;15.40;57.80;;;;;;5303100;26;81296;-41
2024/04/08 09:02:40;;;;;;;;;;;15.50;57.80;;;;;;5303621;26;81541;-42
2024/04/08 09:05:05;;;;;;;;;;;15.50;57.80;;;;;;5304636;26;80202;-42
2024/04/08 09:07:31;;;;;;;;;;;15.50;57.80;;;;;;5312247;26;80287;-43
2024/04/08 09:09:57;;;;;;;;;;;15.50;57.80;;;;;;5303724;26;82274;-41
2024/04/08 09:12:23;;;;;;;;;;;15.50;57.70;;;;;;5293236;26;81446;-41
2024/04/08 09:14:49;;;;;;;;;;;15.50;57.60;;;;;;5299667;26;82256;-41
2024/04/08 09:17:15;;;;;;;;;;;15.50;57.70;;;;;;5298693;26;81413;-41
2024/04/08 09:19:41;;;;;;;;;;;15.50;57.60;;;;;;5301591;26;81208;-42
2024/04/08 09:22:10;;;;;;;;;;;15.50;57.70;;;;;;5310190;26;81462;-41
2024/04/08 09:24:35;;;;;;;;;;;15.50;57.60;;;;;;5316437;26;82041;-41
2024/04/08 09:27:02;;;;;;;;;;;15.60;57.80;;;;;;5301679;26;81193;-42
2024/04/08 09:29:27;;;;;;;;;;;15.60;57.60;;;;;;5308007;26;81076;-42
2024/04/08 09:31:53;;;;;;;;;;;15.60;57.50;;;;;;5303279;26;80892;-43
2024/04/08 09:34:19;;;;;;;;;;;15.60;57.50;;;;;;5313492;26;79688;-41
2024/04/08 09:36:44;;;;;;;;;;;15.60;57.60;;;;;;5303462;26;80873;-41
2024/04/08 09:39:12;;;;;;;;;;;15.60;57.60;;;;;;5299866;26;81064;-42
2024/04/08 09:41:38;;;;;;;;;;;15.60;57.50;;;;;;5311142;26;82319;-42
2024/04/08 09:44:04;;;;;;;;;;;15.60;57.50;;;;;;5302726;26;81862;-42
2024/04/08 09:46:30;;;;;;;;;;;15.70;57.60;;;;;;5309928;26;80317;-42
2024/04/08 09:48:55;;;;;;;;;;;15.70;57.60;;;;;;5303715;26;81731;-42
2024/04/08 09:51:21;;;;;;;;;;;15.70;57.60;;;;;;5307026;26;81922;-41
2024/04/08 09:53:47;;;;;;;;;;;15.70;57.50;;;;;;5311726;26;80354;-41
2024/04/08 09:56:16;;;;;;;;;;;15.70;57.50;;;;;;5306819;26;80441;-41
2024/04/08 09:58:46;;;;;;;;;;;15.70;57.50;;;;;;5310880;26;81254;-42
2024/04/08 10:01:12;;;;;;;;;;;15.70;57.50;;;;;;5313624;26;80391;-42
2024/04/08 10:03:45;;;;;;;;;;;15.70;57.70;;;;;;5309618;26;80280;-41
2024/04/08 10:06:11;;;;;;;;;;;15.80;57.80;;;;;;5300541;26;81627;-43
2024/04/08 10:08:37;;;;;;;;;;;15.80;57.70;;;;;;5312455;26;82546;-42
2024/04/08 10:11:03;;;;;;;;;;;15.80;57.50;;;;;;5303337;26;82130;-42
2024/04/08 10:13:29;;;;;;;;;;;15.80;57.60;;;;;;5309407;26;80459;-42
2024/04/08 10:16:05;;;;;;;;;;;15.80;57.50;;;;;;5299089;26;80911;-41
2024/04/08 10:18:31;;;;;;;;;;;15.80;57.50;;;;;;5305628;26;82112;-42
2024/04/08 10:20:56;;;;;;;;;;;15.80;57.60;;;;;;5314340;26;80417;-42
2024/04/08 10:23:22;;;;;;;;;;;15.90;57.60;;;;;;5307415;26;81688;-42
2024/04/08 10:25:47;;;;;;;;;;;15.90;57.50;;;;;;5305218;26;80981;-41
2024/04/08 10:28:19;;;;;;;;;;;15.90;58.10;;;;;;5301191;26;80699;-42
2024/04/08 10:30:52;;;;;;;;;;;15.90;57.40;;;;;;5311530;26;82805;-42
2024/04/08 10:33:18;;;;;;;;;;;16.00;57.50;;;;;;5304143;26;80842;-42
2024/04/08 10:35:43;;;;;;;;;;;16.00;57.10;;;;;;5301186;26;81583;-42
2024/04/08 10:38:09;;;;;;;;;;;16.00;57.30;;;;;;5305120;26;82273;-41
2024/04/08 10:40:35;;;;;;;;;;;16.00;57.30;;;;;;5317338;26;80308;-42
2024/04/08 10:43:01;;;;;;;;;;;16.00;57.10;;;;;;5302990;26;80265;-41
2024/04/08 10:45:26;;;;;;;;;;;16.00;56.80;;;;;;5302799;26;80778;-42
2024/04/08 10:47:58;;;;;;;;;;;16.00;56.80;;;;;;5320397;26;79571;-41
2024/04/08 10:50:26;;;;;;;;;;;16.10;57.10;;;;;;5305702;26;81964;-41
2024/04/08 10:52:51;;;;;;;;;;;16.10;56.80;;;;;;5310278;26;80623;-42
2024/04/08 10:55:17;;;;;;;;;;;16.10;56.80;;;;;;5303135;26;81163;-42
2024/04/08 10:57:43;;;;;;;;;;;16.10;56.40;;;;;;5295174;26;82807;-42
2024/04/08 11:00:09;;;;;;;;;;;16.10;56.40;;;;;;5318434;26;81467;-42
2024/04/08 11:02:34;;;;;;;;;;;16.10;56.40;;;;;;5298149;26;81651;-42
2024/04/08 11:05:01;;;;;;;;;;;16.20;56.30;;;;;;5299934;26;80309;-42
2024/04/08 11:07:29;;;;;;;;;;;16.20;56.20;;;;;;5304725;26;81166;-42
2024/04/08 11:09:54;;;;;;;;;;;16.20;56.60;;;;;;5304651;26;80106;-42
2024/04/08 11:12:20;;;;;;;;;;;16.20;55.70;;;;;;5311277;26;79634;-41
2024/04/08 11:14:47;;;;;;;;;;;16.30;56.40;;;;;;5305493;26;82210;-42
2024/04/08 11:17:14;;;;;;;;;;;16.30;55.80;;;;;;5307609;26;82098;-41
2024/04/08 11:19:42;;;;;;;;;;;16.30;55.90;;;;;;5303791;26;81384;-41
2024/04/08 11:22:08;;;;;;;;;;;16.30;56.00;;;;;;5308295;26;81480;-41
2024/04/08 11:24:34;;;;;;;;;;;16.30;55.70;;;;;;5305046;26;82159;-42
2024/04/08 11:27:00;;;;;;;;;;;16.40;56.10;;;;;;5303710;26;80377;-41
2024/04/08 11:29:26;;;;;;;;;;;16.40;56.20;;;;;;5303665;26;81683;-42
2024/04/08 11:31:52;;;;;;;;;;;16.40;55.30;;;;;;5308435;26;82305;-41
2024/04/08 11:34:17;;;;;;;;;;;16.40;56.20;;;;;;5313375;26;81069;-41
2024/04/08 11:36:43;;;;;;;;;;;16.50;55.60;;;;;;5303661;26;80649;-42
2024/04/08 11:39:08;;;;;;;;;;;16.40;55.30;;;;;;5298713;26;80838;-41
2024/04/08 11:41:34;;;;;;;;;;;16.50;55.50;;;;;;5308353;26;81760;-41
2024/04/08 11:43:59;;;;;;;;;;;16.50;55.20;;;;;;5305604;26;81807;-41
2024/04/08 11:46:25;;;;;;;;;;;16.60;55.90;;;;;;5297359;26;80447;-41
2024/04/08 11:48:50;;;;;;;;;;;16.60;55.90;;;;;;5304624;26;80516;-41
2024/04/08 11:51:16;;;;;;;;;;;16.60;55.50;;;;;;5314064;26;81005;-42
2024/04/08 11:53:42;;;;;;;;;;;16.60;55.70;;;;;;5306648;26;81605;-41
2024/04/08 11:56:08;;;;;;;;;;;16.60;55.30;;;;;;5303651;26;80958;-41
2024/04/08 11:58:34;;;;;;;;;;;16.60;55.50;;;;;;5300418;26;80757;-42
2024/04/08 12:01:02;;;;;;;;;;;16.70;55.90;;;;;;5305457;26;80511;-41
2024/04/08 12:03:27;;;;;;;;;;;16.60;55.70;;;;;;5298171;26;80786;-41
2024/04/08 12:05:53;;;;;;;;;;;16.70;55.20;;;;;;5301422;26;81635;-41
2024/04/08 12:08:18;;;;;;;;;;;16.70;55.20;;;;;;5311442;26;81735;-41
2024/04/08 12:10:44;;;;;;;;;;;16.70;55.20;;;;;;5312415;26;81050;-41
2024/04/08 12:13:13;;;;;;;;;;;16.80;55.70;;;;;;5309123;26;80528;-41
2024/04/08 12:15:39;;;;;;;;;;;16.80;55.00;;;;;;5313934;26;81051;-41
2024/04/08 12:18:04;;;;;;;;;;;16.80;55.40;;;;;;5311579;26;80500;-42
2024/04/08 12:20:30;;;;;;;;;;;16.80;55.20;;;;;;5311109;26;81358;-41
2024/04/08 12:22:55;;;;;;;;;;;16.90;55.10;;;;;;5304237;26;80930;-41
2024/04/08 12:25:21;;;;;;;;;;;16.90;55.10;;;;;;5301261;26;79604;-41
2024/04/08 12:27:47;;;;;;;;;;;16.90;55.20;;;;;;5306874;26;80434;-41
2024/04/08 12:30:12;;;;;;;;;;;16.90;55.60;;;;;;5302801;26;82087;-41
2024/04/08 12:32:38;;;;;;;;;;;16.90;55.50;;;;;;5312127;26;82187;-41
2024/04/08 12:35:04;;;;;;;;;;;17.00;55.10;;;;;;5312968;26;82707;-41
2024/04/08 12:37:30;;;;;;;;;;;17.00;55.20;;;;;;5305733;26;80442;-42
2024/04/08 12:39:55;;;;;;;;;;;17.00;53.70;;;;;;5314463;26;80538;-40
2024/04/08 12:42:21;;;;;;;;;;;16.90;52.80;;;;;;5303479;26;81027;-40
2024/04/08 12:44:46;;;;;;;;;;;17.00;51.60;;;;;;5294043;26;80123;-42
2024/04/08 12:47:12;;;;;;;;;;;17.00;52.40;;;;;;5311998;26;83764;-42
2024/04/08 12:49:37;;;;;;;;;;;17.00;51.50;;;;;;5309126;26;80591;-46
2024/04/08 12:52:03;;;;;;;;;;;17.10;51.20;;;;;;5306053;26;80372;-38
2024/04/08 12:54:29;;;;;;;;;;;17.20;51.80;;;;;;5300630;26;80791;-37
2024/04/08 12:56:54;;;;;;;;;;;17.20;51.80;;;;;;5301763;26;83161;-38
2024/04/08 12:59:20;;;;;;;;;;;17.20;51.70;;;;;;5313830;26;83134;-37
2024/04/08 13:01:45;;;;;;;;;;;17.30;50.40;;;;;;5314521;26;80542;-47
2024/04/08 13:04:11;;;;;;;;;;;17.40;51.80;;;;;;5309686;26;80430;-37
2024/04/08 13:06:37;;;;;;;;;;;17.50;51.10;;;;;;5303531;26;81377;-36
2024/04/08 13:09:03;;;;;;;;;;;17.50;51.10;;;;;;5301403;26;81429;-38
2024/04/08 13:11:29;;;;;;;;;;;17.60;50.70;;;;;;5310487;26;80284;-38
2024/04/08 13:13:56;;;;;;;;;;;17.60;49.80;;;;;;5309534;26;80613;-36
2024/04/08 13:16:21;;;;;;;;;;;17.70;51.00;;;;;;5295793;26;82160;-37
2024/04/08 13:18:47;;;;;;;;;;;17.70;50.30;;;;;;5308895;26;80183;-38
2024/04/08 13:21:12;;;;;;;;;;;17.70;50.80;;;;;;5307440;26;82985;-37
2024/04/08 13:23:39;;;;;;;;;;;17.90;50.50;;;;;;5304786;26;80448;-40
2024/04/08 13:26:05;;;;;;;;;;;18.00;51.00;;;;;;5294227;26;81603;-40
2024/04/08 13:28:31;;;;;;;;;;;18.10;51.60;;;;;;5301902;26;81368;-38
2024/04/08 13:30:57;;;;;;;;;;;18.10;51.50;;;;;;5302238;26;80351;-37
2024/04/08 13:33:23;;;;;;;;;;;18.10;51.50;;;;;;5317812;26;81715;-38
2024/04/08 13:35:48;;;;;;;;;;;18.00;50.20;;;;;;5304530;26;82130;-37
2024/04/08 13:38:14;;;;;;;;;;;17.90;51.30;;;;;;5307899;26;79629;-37
2024/04/08 13:40:40;;;;;;;;;;;17.90;50.80;;;;;;5307243;26;81520;-37
2024/04/08 13:43:05;;;;;;;;;;;18.00;49.90;;;;;;5310128;26;80315;-38
2024/04/08 13:45:31;;;;;;;;;;;18.00;50.20;;;;;;5302363;26;81491;-41
2024/04/08 13:47:56;;;;;;;;;;;18.10;51.30;;;;;;5303142;26;82340;-39
2024/04/08 13:50:22;;;;;;;;;;;18.10;52.00;;;;;;5302554;26;80299;-40
2024/04/08 13:52:48;;;;;;;;;;;18.20;52.50;;;;;;5307798;26;80474;-40
2024/04/08 13:55:14;;;;;;;;;;;18.30;52.50;;;;;;5306661;26;81629;-38
2024/04/08 13:57:39;;;;;;;;;;;18.30;50.90;;;;;;5303589;26;80633;-38
2024/04/08 14:00:06;;;;;;;;;;;18.30;51.40;;;;;;5304343;26;80639;-39
2024/04/08 14:02:32;;;;;;;;;;;18.30;50.30;;;;;;5297519;26;79660;-41
2024/04/08 14:04:58;;;;;;;;;;;18.30;49.90;;;;;;5300843;26;81029;-42
2024/04/08 14:07:23;;;;;;;;;;;18.40;49.60;;;;;;5305733;26;80877;-37